To NAV CANADA Home Page Login to a new session Search on AWWS site Feedback and Comments Disclaimer Vers la page française équivalente Tips FAQ What's new on the site To the Forecasts and Observations / NOTAM section To "File a Flight Plan" website Publications and other links Update of the User's profile FIC Telephone Numbers My Weather Data Folder Route Weather Data Regional Weather Data Local Weather Data To the Forecasts and Observations / NOTAM section
Request Generated 04/30/2016 at 03:24:02 UTC . Weather information available at that time is displayed.

METAR/TAF

THUNDER BAY/ON    

METAR CYQT 300300Z 04006KT 15SM BKN050 BKN065 07/M01 A3027 RMK SC5SC2
SLP258=
METAR CYQT 300200Z 05007KT 15SM BKN060 BKN110 08/M01 A3025 RMK SC6AC1
SLP255=
METAR CYQT 300100Z 03004KT 20SM BKN060 BKN130 08/M00 A3023 RMK SC6AC1
SLP247=

TAF CYQT 300138Z 3002/3014 VRB03KT P6SM BKN060
FM300600 03008KT P6SM SCT060
RMK NXT FCST BY 300800Z=
Your time UTC time
Weather data provided by Environment Canada and NAV CANADA